sensor_id;sensor_type;location;lat;lon;timestamp;pressure;altitude;pressure_sealevel;temperature
70415;BMP280;57837;52.064;113.478;2023-04-25T00:00:34;93888.34;;;12.41
70415;BMP280;57837;52.064;113.478;2023-04-25T00:03:37;93888.72;;;12.58
70415;BMP280;57837;52.064;113.478;2023-04-25T00:06:41;93881.47;;;12.62
70415;BMP280;57837;52.064;113.478;2023-04-25T00:09:44;93875.25;;;12.35
70415;BMP280;57837;52.064;113.478;2023-04-25T00:12:48;93885.78;;;13.36
70415;BMP280;57837;52.064;113.478;2023-04-25T00:15:53;93874.78;;;12.94
70415;BMP280;57837;52.064;113.478;2023-04-25T00:18:56;93866.28;;;12.93
70415;BMP280;57837;52.064;113.478;2023-04-25T00:22:00;93868.47;;;13.48
70415;BMP280;57837;52.064;113.478;2023-04-25T00:25:05;93852.38;;;13.05
70415;BMP280;57837;52.064;113.478;2023-04-25T00:28:09;93858.47;;;13.17
70415;BMP280;57837;52.064;113.478;2023-04-25T00:31:13;93849.81;;;13.93
70415;BMP280;57837;52.064;113.478;2023-04-25T00:34:16;93849.81;;;12.96
70415;BMP280;57837;52.064;113.478;2023-04-25T00:37:19;93848.94;;;12.75
70415;BMP280;57837;52.064;113.478;2023-04-25T00:40:23;93844.91;;;12.18
70415;BMP280;57837;52.064;113.478;2023-04-25T00:43:28;93843.81;;;11.91
70415;BMP280;57837;52.064;113.478;2023-04-25T00:46:33;93836.81;;;12.96
70415;BMP280;57837;52.064;113.478;2023-04-25T00:49:38;93826.31;;;14.23
70415;BMP280;57837;52.064;113.478;2023-04-25T00:52:44;93833.47;;;14.07
70415;BMP280;57837;52.064;113.478;2023-04-25T00:55:48;93823.81;;;13.49
70415;BMP280;57837;52.064;113.478;2023-04-25T00:58:54;93820.38;;;12.75
70415;BMP280;57837;52.064;113.478;2023-04-25T01:01:59;93817.97;;;13.10
70415;BMP280;57837;52.064;113.478;2023-04-25T01:05:04;93810.38;;;13.51
70415;BMP280;57837;52.064;113.478;2023-04-25T01:08:07;93817.22;;;12.71
70415;BMP280;57837;52.064;113.478;2023-04-25T01:11:12;93798.75;;;13.08
70415;BMP280;57837;52.064;113.478;2023-04-25T01:14:16;93786.34;;;14.05
70415;BMP280;57837;52.064;113.478;2023-04-25T01:17:20;93779.94;;;15.39
70415;BMP280;57837;52.064;113.478;2023-04-25T01:20:24;93776.84;;;15.72
70415;BMP280;57837;52.064;113.478;2023-04-25T01:23:31;93764.22;;;14.36
70415;BMP280;57837;52.064;113.478;2023-04-25T01:26:37;93759.59;;;14.91
70415;BMP280;57837;52.064;113.478;2023-04-25T01:29:41;93751.97;;;15.39
70415;BMP280;57837;52.064;113.478;2023-04-25T01:32:47;93739.97;;;16.55
70415;BMP280;57837;52.064;113.478;2023-04-25T01:35:51;93732.84;;;16.72
70415;BMP280;57837;52.064;113.478;2023-04-25T01:38:55;93730.53;;;17.18
70415;BMP280;57837;52.064;113.478;2023-04-25T01:42:00;93714.56;;;17.16
70415;BMP280;57837;52.064;113.478;2023-04-25T01:45:06;93721.16;;;17.62
70415;BMP280;57837;52.064;113.478;2023-04-25T01:48:12;93710.69;;;17.56
70415;BMP280;57837;52.064;113.478;2023-04-25T01:51:18;93703.09;;;16.47
70415;BMP280;57837;52.064;113.478;2023-04-25T01:54:22;93699.81;;;15.93
70415;BMP280;57837;52.064;113.478;2023-04-25T01:57:26;93694.16;;;15.47
70415;BMP280;57837;52.064;113.478;2023-04-25T02:00:30;93682.13;;;15.23
70415;BMP280;57837;52.064;113.478;2023-04-25T02:03:34;93676.13;;;14.86
70415;BMP280;57837;52.064;113.478;2023-04-25T02:06:42;93671.84;;;14.31
70415;BMP280;57837;52.064;113.478;2023-04-25T02:09:46;93666.38;;;14.09
70415;BMP280;57837;52.064;113.478;2023-04-25T02:12:52;93667.94;;;13.46
70415;BMP280;57837;52.064;113.478;2023-04-25T02:16:10;93657.34;;;14.50
70415;BMP280;57837;52.064;113.478;2023-04-25T02:19:15;93653.72;;;16.55
70415;BMP280;57837;52.064;113.478;2023-04-25T02:22:18;93640.78;;;16.01
70415;BMP280;57837;52.064;113.478;2023-04-25T02:25:23;93640.16;;;15.64
70415;BMP280;57837;52.064;113.478;2023-04-25T02:28:27;93625.44;;;15.18
70415;BMP280;57837;52.064;113.478;2023-04-25T02:31:31;93616.22;;;15.76
70415;BMP280;57837;52.064;113.478;2023-04-25T02:34:35;93613.63;;;15.87
70415;BMP280;57837;52.064;113.478;2023-04-25T02:37:40;93602.59;;;16.76
70415;BMP280;57837;52.064;113.478;2023-04-25T02:40:43;93597.56;;;17.17
70415;BMP280;57837;52.064;113.478;2023-04-25T02:43:47;93598.31;;;16.51
70415;BMP280;57837;52.064;113.478;2023-04-25T02:46:52;93583.59;;;16.42
70415;BMP280;57837;52.064;113.478;2023-04-25T02:49:58;93578.63;;;16.33
70415;BMP280;57837;52.064;113.478;2023-04-25T02:53:02;93567.59;;;15.79
70415;BMP280;57837;52.064;113.478;2023-04-25T02:56:12;93564.66;;;15.60
70415;BMP280;57837;52.064;113.478;2023-04-25T02:59:15;93552.31;;;15.50
70415;BMP280;57837;52.064;113.478;2023-04-25T03:02:19;93554.34;;;15.23
70415;BMP280;57837;52.064;113.478;2023-04-25T03:05:23;93546.94;;;15.81
70415;BMP280;57837;52.064;113.478;2023-04-25T03:08:27;93538.22;;;16.51
70415;BMP280;57837;52.064;113.478;2023-04-25T03:11:38;93531.09;;;15.96
70415;BMP280;57837;52.064;113.478;2023-04-25T03:14:42;93521.31;;;15.74
70415;BMP280;57837;52.064;113.478;2023-04-25T03:17:45;93510.94;;;16.07
70415;BMP280;57837;52.064;113.478;2023-04-25T03:20:50;93510.91;;;15.79
70415;BMP280;57837;52.064;113.478;2023-04-25T03:23:53;93501.84;;;15.86
70415;BMP280;57837;52.064;113.478;2023-04-25T03:26:57;93491.44;;;16.08
70415;BMP280;57837;52.064;113.478;2023-04-25T03:30:01;93483.06;;;15.54
70415;BMP280;57837;52.064;113.478;2023-04-25T03:33:05;93475.44;;;15.39
70415;BMP280;57837;52.064;113.478;2023-04-25T03:36:09;93465.47;;;15.43
70415;BMP280;57837;52.064;113.478;2023-04-25T03:39:13;93455.25;;;15.34
70415;BMP280;57837;52.064;113.478;2023-04-25T03:42:22;93448.81;;;15.19
70415;BMP280;57837;52.064;113.478;2023-04-25T03:45:26;93439.94;;;14.88
70415;BMP280;57837;52.064;113.478;2023-04-25T03:48:30;93441.16;;;15.04
70415;BMP280;57837;52.064;113.478;2023-04-25T03:51:34;93437.91;;;15.31
70415;BMP280;57837;52.064;113.478;2023-04-25T03:54:38;93426.13;;;15.58
70415;BMP280;57837;52.064;113.478;2023-04-25T03:57:45;93416.66;;;15.94
70415;BMP280;57837;52.064;113.478;2023-04-25T04:00:50;93412.13;;;16.11
70415;BMP280;57837;52.064;113.478;2023-04-25T04:03:55;93404.09;;;16.04
70415;BMP280;57837;52.064;113.478;2023-04-25T04:07:00;93390.53;;;15.44
70415;BMP280;57837;52.064;113.478;2023-04-25T04:10:11;93388.38;;;15.26
70415;BMP280;57837;52.064;113.478;2023-04-25T04:13:15;93373.47;;;15.49
70415;BMP280;57837;52.064;113.478;2023-04-25T04:16:20;93368.25;;;15.82
70415;BMP280;57837;52.064;113.478;2023-04-25T04:19:24;93354.47;;;16.04
70415;BMP280;57837;52.064;113.478;2023-04-25T04:22:50;93350.56;;;16.38
70415;BMP280;57837;52.064;113.478;2023-04-25T04:25:55;93338.75;;;16.26
70415;BMP280;57837;52.064;113.478;2023-04-25T04:29:19;93336.72;;;15.69
70415;BMP280;57837;52.064;113.478;2023-04-25T04:32:41;93320.31;;;15.85
70415;BMP280;57837;52.064;113.478;2023-04-25T04:35:46;93314.25;;;16.34
70415;BMP280;57837;52.064;113.478;2023-04-25T04:38:51;93304.63;;;16.02
70415;BMP280;57837;52.064;113.478;2023-04-25T04:42:10;93293.16;;;16.21
70415;BMP280;57837;52.064;113.478;2023-04-25T04:45:36;93284.69;;;16.04
70415;BMP280;57837;52.064;113.478;2023-04-25T04:48:46;93279.00;;;15.89
70415;BMP280;57837;52.064;113.478;2023-04-25T04:52:23;93262.22;;;15.73
70415;BMP280;57837;52.064;113.478;2023-04-25T04:55:37;93251.47;;;15.88
70415;BMP280;57837;52.064;113.478;2023-04-25T04:59:16;93243.19;;;15.89
70415;BMP280;57837;52.064;113.478;2023-04-25T05:02:37;93238.06;;;16.19
70415;BMP280;57837;52.064;113.478;2023-04-25T05:06:02;93235.00;;;16.15
70415;BMP280;57837;52.064;113.478;2023-04-25T05:09:26;93227.44;;;16.12
70415;BMP280;57837;52.064;113.478;2023-04-25T05:12:59;93221.16;;;15.74
70415;BMP280;57837;52.064;113.478;2023-04-25T05:16:32;93210.91;;;15.87
70415;BMP280;57837;52.064;113.478;2023-04-25T05:19:56;93202.31;;;16.03
70415;BMP280;57837;52.064;113.478;2023-04-25T05:23:30;93190.44;;;15.97
70415;BMP280;57837;52.064;113.478;2023-04-25T05:26:44;93182.91;;;15.87
70415;BMP280;57837;52.064;113.478;2023-04-25T05:30:08;93184.06;;;15.86
70415;BMP280;57837;52.064;113.478;2023-04-25T05:33:31;93160.16;;;15.77
70415;BMP280;57837;52.064;113.478;2023-04-25T05:36:35;93158.88;;;16.06
70415;BMP280;57837;52.064;113.478;2023-04-25T05:39:40;93146.63;;;16.25
70415;BMP280;57837;52.064;113.478;2023-04-25T05:43:10;93130.78;;;16.17
70415;BMP280;57837;52.064;113.478;2023-04-25T05:46:32;93108.78;;;16.07
70415;BMP280;57837;52.064;113.478;2023-04-25T05:49:55;93101.53;;;15.83
70415;BMP280;57837;52.064;113.478;2023-04-25T05:53:17;93087.19;;;15.55
70415;BMP280;57837;52.064;113.478;2023-04-25T05:56:28;93085.47;;;15.74
70415;BMP280;57837;52.064;113.478;2023-04-25T05:59:32;93078.06;;;15.78
70415;BMP280;57837;52.064;113.478;2023-04-25T06:02:35;93066.00;;;15.75
70415;BMP280;57837;52.064;113.478;2023-04-25T06:05:41;93069.09;;;15.73
70415;BMP280;57837;52.064;113.478;2023-04-25T06:08:45;93055.09;;;15.71
70415;BMP280;57837;52.064;113.478;2023-04-25T06:11:48;93048.81;;;15.91
70415;BMP280;57837;52.064;113.478;2023-04-25T06:14:53;93042.38;;;15.92
70415;BMP280;57837;52.064;113.478;2023-04-25T06:17:56;93026.31;;;15.35
70415;BMP280;57837;52.064;113.478;2023-04-25T06:21:00;93026.84;;;15.28
70415;BMP280;57837;52.064;113.478;2023-04-25T06:24:03;93013.53;;;15.32
70415;BMP280;57837;52.064;113.478;2023-04-25T06:27:08;93009.47;;;15.36
70415;BMP280;57837;52.064;113.478;2023-04-25T06:30:13;93004.03;;;15.34
70415;BMP280;57837;52.064;113.478;2023-04-25T06:33:17;92988.97;;;15.05
70415;BMP280;57837;52.064;113.478;2023-04-25T06:36:21;92975.69;;;15.09
70415;BMP280;57837;52.064;113.478;2023-04-25T06:39:36;92968.22;;;14.83
70415;BMP280;57837;52.064;113.478;2023-04-25T06:42:43;92961.59;;;14.76
70415;BMP280;57837;52.064;113.478;2023-04-25T06:46:17;92954.44;;;14.99
70415;BMP280;57837;52.064;113.478;2023-04-25T06:49:23;92944.91;;;15.07
70415;BMP280;57837;52.064;113.478;2023-04-25T06:52:26;92936.38;;;15.07
70415;BMP280;57837;52.064;113.478;2023-04-25T06:55:30;92936.44;;;14.95
70415;BMP280;57837;52.064;113.478;2023-04-25T06:58:47;92921.31;;;14.83
70415;BMP280;57837;52.064;113.478;2023-04-25T07:02:22;92917.38;;;14.54
70415;BMP280;57837;52.064;113.478;2023-04-25T07:05:29;92907.72;;;14.27
70415;BMP280;57837;52.064;113.478;2023-04-25T07:08:33;92902.50;;;14.32
70415;BMP280;57837;52.064;113.478;2023-04-25T07:11:36;92897.56;;;14.29
70415;BMP280;57837;52.064;113.478;2023-04-25T07:14:40;92889.78;;;13.90
70415;BMP280;57837;52.064;113.478;2023-04-25T07:17:54;92882.69;;;13.74
70415;BMP280;57837;52.064;113.478;2023-04-25T07:20:57;92883.66;;;13.76
70415;BMP280;57837;52.064;113.478;2023-04-25T07:24:15;92864.75;;;13.87
70415;BMP280;57837;52.064;113.478;2023-04-25T07:27:22;92865.16;;;13.96
70415;BMP280;57837;52.064;113.478;2023-04-25T07:30:37;92862.34;;;14.00
70415;BMP280;57837;52.064;113.478;2023-04-25T07:33:40;92855.97;;;14.06
70415;BMP280;57837;52.064;113.478;2023-04-25T07:36:44;92853.56;;;14.03
70415;BMP280;57837;52.064;113.478;2023-04-25T07:39:48;92840.81;;;13.99
70415;BMP280;57837;52.064;113.478;2023-04-25T07:42:52;92833.41;;;14.20
70415;BMP280;57837;52.064;113.478;2023-04-25T07:46:07;92823.72;;;14.26
70415;BMP280;57837;52.064;113.478;2023-04-25T07:49:11;92824.41;;;14.38
70415;BMP280;57837;52.064;113.478;2023-04-25T07:52:18;92817.25;;;14.44
70415;BMP280;57837;52.064;113.478;2023-04-25T07:55:26;92802.09;;;14.48
70415;BMP280;57837;52.064;113.478;2023-04-25T07:58:37;92800.97;;;14.38
70415;BMP280;57837;52.064;113.478;2023-04-25T08:01:44;92797.41;;;14.35
70415;BMP280;57837;52.064;113.478;2023-04-25T08:04:49;92789.28;;;14.50
70415;BMP280;57837;52.064;113.478;2023-04-25T08:08:15;92778.09;;;14.72
70415;BMP280;57837;52.064;113.478;2023-04-25T08:11:22;92766.13;;;14.87
70415;BMP280;57837;52.064;113.478;2023-04-25T08:14:26;92766.78;;;14.99
70415;BMP280;57837;52.064;113.478;2023-04-25T08:17:30;92759.66;;;14.99
70415;BMP280;57837;52.064;113.478;2023-04-25T08:20:33;92753.38;;;14.84
70415;BMP280;57837;52.064;113.478;2023-04-25T08:23:40;92751.28;;;14.77
70415;BMP280;57837;52.064;113.478;2023-04-25T08:26:47;92741.81;;;14.74
70415;BMP280;57837;52.064;113.478;2023-04-25T08:29:54;92729.78;;;14.71
70415;BMP280;57837;52.064;113.478;2023-04-25T08:32:59;92740.63;;;14.75
70415;BMP280;57837;52.064;113.478;2023-04-25T08:36:20;92736.69;;;14.98
70415;BMP280;57837;52.064;113.478;2023-04-25T08:39:51;92721.88;;;15.12
70415;BMP280;57837;52.064;113.478;2023-04-25T08:43:18;92715.44;;;15.18
70415;BMP280;57837;52.064;113.478;2023-04-25T08:46:21;92706.19;;;15.17
70415;BMP280;57837;52.064;113.478;2023-04-25T08:49:39;92704.59;;;15.09
70415;BMP280;57837;52.064;113.478;2023-04-25T08:52:47;92703.31;;;14.91
70415;BMP280;57837;52.064;113.478;2023-04-25T08:55:53;92699.84;;;14.83
70415;BMP280;57837;52.064;113.478;2023-04-25T08:58:57;92699.16;;;14.77
70415;BMP280;57837;52.064;113.478;2023-04-25T09:02:00;92688.09;;;14.71
70415;BMP280;57837;52.064;113.478;2023-04-25T09:05:06;92679.00;;;14.83
70415;BMP280;57837;52.064;113.478;2023-04-25T09:08:11;92680.06;;;14.98
70415;BMP280;57837;52.064;113.478;2023-04-25T09:11:16;92678.66;;;15.22
70415;BMP280;57837;52.064;113.478;2023-04-25T09:14:23;92673.44;;;15.22
70415;BMP280;57837;52.064;113.478;2023-04-25T09:17:42;92671.88;;;15.13
70415;BMP280;57837;52.064;113.478;2023-04-25T09:20:48;92672.25;;;14.98
70415;BMP280;57837;52.064;113.478;2023-04-25T09:23:54;92667.72;;;14.99
70415;BMP280;57837;52.064;113.478;2023-04-25T09:26:58;92667.44;;;15.02
70415;BMP280;57837;52.064;113.478;2023-04-25T09:30:02;92667.72;;;14.99
70415;BMP280;57837;52.064;113.478;2023-04-25T09:33:29;92655.69;;;14.96
70415;BMP280;57837;52.064;113.478;2023-04-25T09:36:35;92657.16;;;14.86
70415;BMP280;57837;52.064;113.478;2023-04-25T09:39:59;92654.78;;;14.88
70415;BMP280;57837;52.064;113.478;2023-04-25T09:43:25;92653.59;;;14.89
70415;BMP280;57837;52.064;113.478;2023-04-25T09:46:34;92651.28;;;14.80
70415;BMP280;57837;52.064;113.478;2023-04-25T09:49:46;92645.44;;;14.74
70415;BMP280;57837;52.064;113.478;2023-04-25T09:53:03;92641.19;;;14.71
70415;BMP280;57837;52.064;113.478;2023-04-25T09:56:30;92635.75;;;14.69
70415;BMP280;57837;52.064;113.478;2023-04-25T09:59:47;92626.38;;;14.60
70415;BMP280;57837;52.064;113.478;2023-04-25T10:02:51;92627.63;;;14.48
70415;BMP280;57837;52.064;113.478;2023-04-25T10:06:35;92627.75;;;14.31
70415;BMP280;57837;52.064;113.478;2023-04-25T10:09:42;92635.56;;;14.31
70415;BMP280;57837;52.064;113.478;2023-04-25T10:12:48;92624.59;;;14.44
70415;BMP280;57837;52.064;113.478;2023-04-25T10:15:52;92632.34;;;14.49
70415;BMP280;57837;52.064;113.478;2023-04-25T10:18:57;92622.91;;;14.46
70415;BMP280;57837;52.064;113.478;2023-04-25T10:25:11;92609.94;;;14.41
70415;BMP280;57837;52.064;113.478;2023-04-25T10:28:14;92585.78;;;14.40
70415;BMP280;57837;52.064;113.478;2023-04-25T10:31:19;92587.03;;;14.34
70415;BMP280;57837;52.064;113.478;2023-04-25T10:37:58;92586.44;;;14.17
70415;BMP280;57837;52.064;113.478;2023-04-25T10:41:04;92582.97;;;14.03
70415;BMP280;57837;52.064;113.478;2023-04-25T10:44:08;92587.00;;;13.98
70415;BMP280;57837;52.064;113.478;2023-04-25T10:47:12;92583.03;;;13.92
70415;BMP280;57837;52.064;113.478;2023-04-25T10:50:16;92582.81;;;13.90
70415;BMP280;57837;52.064;113.478;2023-04-25T10:53:24;92583.53;;;13.85
70415;BMP280;57837;52.064;113.478;2023-04-25T10:56:33;92587.34;;;13.78
70415;BMP280;57837;52.064;113.478;2023-04-25T10:59:39;92577.94;;;13.69
70415;BMP280;57837;52.064;113.478;2023-04-25T11:02:53;92577.78;;;13.56
70415;BMP280;57837;52.064;113.478;2023-04-25T11:05:56;92566.00;;;13.44
70415;BMP280;57837;52.064;113.478;2023-04-25T11:09:01;92565.53;;;13.40
70415;BMP280;57837;52.064;113.478;2023-04-25T11:12:06;92575.50;;;13.36
70415;BMP280;57837;52.064;113.478;2023-04-25T11:15:09;92584.50;;;13.30
70415;BMP280;57837;52.064;113.478;2023-04-25T11:18:17;92566.34;;;13.18
70415;BMP280;57837;52.064;113.478;2023-04-25T11:21:22;92573.69;;;13.09
70415;BMP280;57837;52.064;113.478;2023-04-25T11:24:27;92574.88;;;13.02
70415;BMP280;57837;52.064;113.478;2023-04-25T11:27:31;92571.09;;;12.87
70415;BMP280;57837;52.064;113.478;2023-04-25T11:30:34;92564.75;;;12.76
70415;BMP280;57837;52.064;113.478;2023-04-25T11:33:37;92581.28;;;12.73
70415;BMP280;57837;52.064;113.478;2023-04-25T11:36:40;92573.97;;;12.61
70415;BMP280;57837;52.064;113.478;2023-04-25T11:39:45;92579.44;;;12.52
70415;BMP280;57837;52.064;113.478;2023-04-25T11:42:49;92572.56;;;12.49
70415;BMP280;57837;52.064;113.478;2023-04-25T11:45:57;92585.31;;;12.47
70415;BMP280;57837;52.064;113.478;2023-04-25T11:49:00;92585.28;;;12.35
70415;BMP280;57837;52.064;113.478;2023-04-25T11:52:06;92586.47;;;12.23
70415;BMP280;57837;52.064;113.478;2023-04-25T11:55:13;92579.63;;;12.20
70415;BMP280;57837;52.064;113.478;2023-04-25T11:58:16;92576.53;;;12.11
70415;BMP280;57837;52.064;113.478;2023-04-25T12:01:30;92573.22;;;11.99
70415;BMP280;57837;52.064;113.478;2023-04-25T12:04:40;92568.03;;;11.99
70415;BMP280;57837;52.064;113.478;2023-04-25T12:07:45;92561.22;;;12.02
70415;BMP280;57837;52.064;113.478;2023-04-25T12:10:49;92556.22;;;12.04
70415;BMP280;57837;52.064;113.478;2023-04-25T12:13:52;92549.63;;;11.97
70415;BMP280;57837;52.064;113.478;2023-04-25T12:17:02;92557.41;;;11.97
70415;BMP280;57837;52.064;113.478;2023-04-25T12:20:09;92562.59;;;11.91
70415;BMP280;57837;52.064;113.478;2023-04-25T12:23:13;92569.91;;;11.87
70415;BMP280;57837;52.064;113.478;2023-04-25T12:26:18;92569.13;;;11.76
70415;BMP280;57837;52.064;113.478;2023-04-25T12:29:24;92565.03;;;11.52
70415;BMP280;57837;52.064;113.478;2023-04-25T12:32:33;92576.50;;;11.29
70415;BMP280;57837;52.064;113.478;2023-04-25T12:35:37;92577.50;;;11.00
70415;BMP280;57837;52.064;113.478;2023-04-25T12:38:44;92575.00;;;10.74
70415;BMP280;57837;52.064;113.478;2023-04-25T12:41:48;92577.53;;;10.69
70415;BMP280;57837;52.064;113.478;2023-04-25T12:44:52;92580.53;;;10.56
70415;BMP280;57837;52.064;113.478;2023-04-25T12:48:21;92575.13;;;10.60
70415;BMP280;57837;52.064;113.478;2023-04-25T12:51:24;92574.25;;;10.37
70415;BMP280;57837;52.064;113.478;2023-04-25T12:54:28;92574.59;;;10.24
70415;BMP280;57837;52.064;113.478;2023-04-25T12:57:31;92576.78;;;10.06
70415;BMP280;57837;52.064;113.478;2023-04-25T13:00:35;92568.84;;;10.15
70415;BMP280;57837;52.064;113.478;2023-04-25T13:03:38;92565.00;;;10.05
70415;BMP280;57837;52.064;113.478;2023-04-25T13:06:42;92571.88;;;9.87
70415;BMP280;57837;52.064;113.478;2023-04-25T13:09:45;92566.22;;;9.63
70415;BMP280;57837;52.064;113.478;2023-04-25T13:13:00;92559.31;;;9.20
70415;BMP280;57837;52.064;113.478;2023-04-25T13:16:04;92563.06;;;8.98
70415;BMP280;57837;52.064;113.478;2023-04-25T13:19:08;92566.59;;;8.86
70415;BMP280;57837;52.064;113.478;2023-04-25T13:22:14;92559.88;;;8.74
70415;BMP280;57837;52.064;113.478;2023-04-25T13:25:20;92566.47;;;8.46
70415;BMP280;57837;52.064;113.478;2023-04-25T13:28:25;92556.16;;;8.31
70415;BMP280;57837;52.064;113.478;2023-04-25T13:31:28;92562.47;;;8.30
70415;BMP280;57837;52.064;113.478;2023-04-25T13:34:32;92560.41;;;8.34
70415;BMP280;57837;52.064;113.478;2023-04-25T13:37:38;92557.38;;;8.35
70415;BMP280;57837;52.064;113.478;2023-04-25T13:40:41;92556.63;;;8.20
70415;BMP280;57837;52.064;113.478;2023-04-25T13:43:48;92559.41;;;8.31
70415;BMP280;57837;52.064;113.478;2023-04-25T13:46:52;92574.84;;;8.41
70415;BMP280;57837;52.064;113.478;2023-04-25T13:49:56;92562.97;;;8.63
70415;BMP280;57837;52.064;113.478;2023-04-25T13:53:00;92574.63;;;8.88
70415;BMP280;57837;52.064;113.478;2023-04-25T13:56:03;92574.72;;;8.50
70415;BMP280;57837;52.064;113.478;2023-04-25T13:59:08;92565.63;;;8.25
70415;BMP280;57837;52.064;113.478;2023-04-25T14:02:11;92566.09;;;8.09
70415;BMP280;57837;52.064;113.478;2023-04-25T14:05:14;92574.63;;;7.67
70415;BMP280;57837;52.064;113.478;2023-04-25T14:08:17;92559.19;;;7.67
70415;BMP280;57837;52.064;113.478;2023-04-25T14:11:21;92565.56;;;7.57
70415;BMP280;57837;52.064;113.478;2023-04-25T14:14:25;92561.47;;;7.17
70415;BMP280;57837;52.064;113.478;2023-04-25T14:17:28;92566.19;;;7.19
70415;BMP280;57837;52.064;113.478;2023-04-25T14:20:31;92568.47;;;7.50
70415;BMP280;57837;52.064;113.478;2023-04-25T14:23:35;92557.84;;;7.57
70415;BMP280;57837;52.064;113.478;2023-04-25T14:26:39;92558.31;;;7.70
70415;BMP280;57837;52.064;113.478;2023-04-25T14:29:43;92551.59;;;7.73
70415;BMP280;57837;52.064;113.478;2023-04-25T14:32:50;92563.28;;;7.59
70415;BMP280;57837;52.064;113.478;2023-04-25T14:35:54;92560.41;;;7.33
70415;BMP280;57837;52.064;113.478;2023-04-25T14:38:59;92558.22;;;6.66
70415;BMP280;57837;52.064;113.478;2023-04-25T14:42:03;92553.16;;;6.20
70415;BMP280;57837;52.064;113.478;2023-04-25T14:45:07;92548.03;;;5.84
70415;BMP280;57837;52.064;113.478;2023-04-25T14:48:12;92549.25;;;5.52
70415;BMP280;57837;52.064;113.478;2023-04-25T14:51:16;92545.16;;;5.14
70415;BMP280;57837;52.064;113.478;2023-04-25T14:54:20;92546.84;;;4.77
70415;BMP280;57837;52.064;113.478;2023-04-25T14:57:23;92536.56;;;4.68
70415;BMP280;57837;52.064;113.478;2023-04-25T15:00:28;92537.03;;;4.76
70415;BMP280;57837;52.064;113.478;2023-04-25T15:03:31;92530.75;;;4.77
70415;BMP280;57837;52.064;113.478;2023-04-25T15:06:36;92544.34;;;4.86
70415;BMP280;57837;52.064;113.478;2023-04-25T15:09:39;92540.66;;;4.87
70415;BMP280;57837;52.064;113.478;2023-04-25T15:12:44;92544.78;;;4.85
70415;BMP280;57837;52.064;113.478;2023-04-25T15:15:48;92540.00;;;4.74
70415;BMP280;57837;52.064;113.478;2023-04-25T15:18:54;92539.53;;;4.67
70415;BMP280;57837;52.064;113.478;2023-04-25T15:21:58;92532.97;;;4.66
70415;BMP280;57837;52.064;113.478;2023-04-25T15:25:07;92535.28;;;4.64
70415;BMP280;57837;52.064;113.478;2023-04-25T15:28:11;92537.88;;;4.73
70415;BMP280;57837;52.064;113.478;2023-04-25T15:31:19;92539.50;;;4.57
70415;BMP280;57837;52.064;113.478;2023-04-25T15:34:22;92546.19;;;4.33
70415;BMP280;57837;52.064;113.478;2023-04-25T15:37:25;92551.94;;;4.25
70415;BMP280;57837;52.064;113.478;2023-04-25T15:40:29;92549.81;;;4.23
70415;BMP280;57837;52.064;113.478;2023-04-25T15:43:33;92550.72;;;4.29
70415;BMP280;57837;52.064;113.478;2023-04-25T15:46:39;92542.72;;;4.27
70415;BMP280;57837;52.064;113.478;2023-04-25T15:49:44;92544.78;;;4.19
70415;BMP280;57837;52.064;113.478;2023-04-25T15:52:50;92549.09;;;3.88
70415;BMP280;57837;52.064;113.478;2023-04-25T15:55:55;92545.97;;;3.59
70415;BMP280;57837;52.064;113.478;2023-04-25T15:58:58;92553.75;;;3.68
70415;BMP280;57837;52.064;113.478;2023-04-25T16:02:03;92536.25;;;3.79
70415;BMP280;57837;52.064;113.478;2023-04-25T16:05:06;92554.28;;;3.63
70415;BMP280;57837;52.064;113.478;2023-04-25T16:08:11;92538.44;;;3.55
70415;BMP280;57837;52.064;113.478;2023-04-25T16:11:15;92544.16;;;3.34
70415;BMP280;57837;52.064;113.478;2023-04-25T16:14:19;92541.31;;;3.32
70415;BMP280;57837;52.064;113.478;2023-04-25T16:17:23;92548.28;;;3.19
70415;BMP280;57837;52.064;113.478;2023-04-25T16:20:28;92545.19;;;3.11
70415;BMP280;57837;52.064;113.478;2023-04-25T16:23:31;92546.81;;;3.05
70415;BMP280;57837;52.064;113.478;2023-04-25T16:26:35;92547.44;;;2.96
70415;BMP280;57837;52.064;113.478;2023-04-25T16:29:40;92538.41;;;2.79
70415;BMP280;57837;52.064;113.478;2023-04-25T16:32:44;92549.44;;;2.63
70415;BMP280;57837;52.064;113.478;2023-04-25T16:35:48;92552.91;;;2.57
70415;BMP280;57837;52.064;113.478;2023-04-25T16:38:53;92539.81;;;2.55
70415;BMP280;57837;52.064;113.478;2023-04-25T16:41:57;92542.34;;;2.42
70415;BMP280;57837;52.064;113.478;2023-04-25T16:45:01;92550.06;;;2.10
70415;BMP280;57837;52.064;113.478;2023-04-25T16:48:05;92552.63;;;1.93
70415;BMP280;57837;52.064;113.478;2023-04-25T16:51:09;92553.34;;;1.94
70415;BMP280;57837;52.064;113.478;2023-04-25T16:54:12;92551.06;;;1.83
70415;BMP280;57837;52.064;113.478;2023-04-25T16:57:16;92561.59;;;1.85
70415;BMP280;57837;52.064;113.478;2023-04-25T17:00:20;92557.16;;;2.02
70415;BMP280;57837;52.064;113.478;2023-04-25T17:03:23;92555.56;;;2.08
70415;BMP280;57837;52.064;113.478;2023-04-25T17:06:27;92558.19;;;2.04
70415;BMP280;57837;52.064;113.478;2023-04-25T17:09:34;92554.94;;;2.04
70415;BMP280;57837;52.064;113.478;2023-04-25T17:12:38;92563.06;;;1.99
70415;BMP280;57837;52.064;113.478;2023-04-25T17:15:42;92563.47;;;1.97
70415;BMP280;57837;52.064;113.478;2023-04-25T17:18:45;92560.28;;;2.10
70415;BMP280;57837;52.064;113.478;2023-04-25T17:21:50;92558.19;;;2.04
70415;BMP280;57837;52.064;113.478;2023-04-25T17:24:53;92566.41;;;1.96
70415;BMP280;57837;52.064;113.478;2023-04-25T17:27:57;92562.09;;;1.93
70415;BMP280;57837;52.064;113.478;2023-04-25T17:31:00;92561.81;;;1.91
70415;BMP280;57837;52.064;113.478;2023-04-25T17:34:04;92560.56;;;1.83
70415;BMP280;57837;52.064;113.478;2023-04-25T17:37:08;92565.34;;;1.81